Time;durP1;ratioP1;P1;durP2;ratioP2;P2;SDS_P1;SDS_P2;PMS_P1;PMS_P2;Temp;Humidity;BMP_temperature;BMP_pressure;BME280_temperature;BME280_humidity;BME280_pressure;Samples;Min_cycle;Max_cycle;Signal;HPM_P1;HPM_P2
2021/03/13 00:01:20;;;;;;;30.60;4.90;;;;;;;6.66;86.76;99882.38;5007117;28;20433;-74
2021/03/13 00:03:46;;;;;;;27.75;4.25;;;;;;;6.61;87.16;99867.91;5007915;28;20030;-74
2021/03/13 00:06:11;;;;;;;26.05;5.03;;;;;;;6.68;86.90;99883.06;5006502;28;20617;-74
2021/03/13 00:08:37;;;;;;;23.20;4.43;;;;;;;6.31;86.96;99816.94;5006917;28;20076;-74
2021/03/13 00:11:05;;;;;;;32.47;4.75;;;;;;;6.43;86.99;99829.81;5007298;28;20341;-74
2021/03/13 00:13:30;;;;;;;25.60;4.22;;;;;;;6.69;86.81;99868.84;5005537;28;20046;-74
2021/03/13 00:15:56;;;;;;;28.52;4.53;;;;;;;6.73;86.40;99858.75;5019293;28;20050;-74
2021/03/13 00:18:22;;;;;;;30.33;4.80;;;;;;;6.58;86.60;99832.78;5006211;28;20088;-74
2021/03/13 00:20:47;;;;;;;22.83;4.15;;;;;;;6.78;86.01;99855.63;4990653;28;20034;-74
2021/03/13 00:23:16;;;;;;;25.67;4.30;;;;;;;6.74;86.45;99847.97;5005606;28;20083;-74
2021/03/13 00:25:42;;;;;;;27.17;4.15;;;;;;;6.69;86.58;99844.13;5019378;28;20678;-74
2021/03/13 00:28:08;;;;;;;22.35;5.00;;;;;;;6.70;86.42;99829.88;5006805;28;20044;-74
2021/03/13 00:30:42;;;;;;;21.08;4.13;;;;;;;6.56;86.30;99796.81;5006521;28;20048;-74
2021/03/13 00:33:15;;;;;;;18.15;3.60;;;;;;;6.74;85.94;99824.13;5001262;28;20048;-74
2021/03/13 00:35:44;;;;;;;28.25;4.10;;;;;;;6.78;86.11;99816.72;5002442;28;20551;-75
2021/03/13 00:38:09;;;;;;;;;;;;;;;6.77;85.69;99814.19;5006241;28;20033;-75
2021/03/13 00:40:37;;;;;;;23.02;4.22;;;;;;;6.74;85.43;99810.03;5019865;28;19924;-74
2021/03/13 00:43:05;;;;;;;16.83;3.70;;;;;;;6.78;85.38;99811.41;5006968;28;20025;-74
2021/03/13 00:45:31;;;;;;;24.63;3.88;;;;;;;6.56;85.22;99765.81;5004815;28;20534;-75
2021/03/13 00:47:57;;;;;;;19.30;3.63;;;;;;;6.79;86.24;99804.25;5006447;28;20041;-75
2021/03/13 00:50:25;;;;;;;18.83;3.92;;;;;;;6.76;87.72;99791.31;5006160;28;20049;-74
2021/03/13 00:52:50;;;;;;;16.63;4.13;;;;;;;6.69;88.10;99769.88;5006584;28;20038;-74
2021/03/13 00:55:17;;;;;;;23.67;4.57;;;;;;;6.61;88.67;99781.25;5005733;28;20464;-73
2021/03/13 00:57:42;;;;;;;14.55;3.83;;;;;;;6.51;89.16;99765.47;5005156;28;20404;-74
2021/03/13 01:00:14;;;;;;;16.90;3.60;;;;;;;6.42;90.03;99761.91;4997092;28;20117;-73
2021/03/13 01:02:39;;;;;;;19.48;4.00;;;;;;;6.37;90.58;99758.06;5003776;28;20030;-73
2021/03/13 01:05:07;;;;;;;16.48;3.42;;;;;;;6.32;90.93;99753.19;5003990;28;20583;-74
2021/03/13 01:07:34;;;;;;;12.27;3.33;;;;;;;6.27;91.58;99747.53;5005529;28;20034;-73
2021/03/13 01:10:05;;;;;;;18.48;4.18;;;;;;;6.27;91.49;99734.28;5001996;28;20121;-73
2021/03/13 01:12:31;;;;;;;13.85;3.70;;;;;;;6.24;91.65;99732.75;5003408;28;20038;-73
2021/03/13 01:14:56;;;;;;;17.20;3.88;;;;;;;6.09;92.58;99705.16;4984186;28;633981;-73
2021/03/13 01:17:22;;;;;;;21.63;4.57;;;;;;;6.17;93.06;99714.97;4973182;28;20041;-73
2021/03/13 01:19:47;;;;;;;18.08;3.85;;;;;;;6.15;92.77;99714.31;5003802;28;20398;-73
2021/03/13 01:22:13;;;;;;;13.82;3.88;;;;;;;5.99;92.70;99678.69;5004057;28;20515;-73
2021/03/13 01:24:40;;;;;;;17.50;4.20;;;;;;;6.00;92.63;99674.25;5006598;28;20037;-73
2021/03/13 01:27:08;;;;;;;13.73;4.03;;;;;;;6.11;93.45;99698.69;5004343;28;20037;-73
2021/03/13 01:29:34;;;;;;;17.73;3.80;;;;;;;6.08;92.53;99680.47;5000082;28;20038;-73
2021/03/13 01:32:03;;;;;;;10.98;3.30;;;;;;;6.11;92.97;99679.31;4999946;28;20754;-73
2021/03/13 01:34:32;;;;;;;9.57;3.28;;;;;;;6.11;93.09;99671.38;5006781;28;20049;-73
2021/03/13 01:36:59;;;;;;;8.43;2.70;;;;;;;6.05;92.82;99659.56;5008942;28;20057;-73
2021/03/13 01:39:24;;;;;;;13.25;3.65;;;;;;;6.06;93.34;99648.00;5010203;28;20034;-72
2021/03/13 01:41:50;;;;;;;10.95;3.10;;;;;;;5.91;93.36;99633.59;5008680;28;20030;-72
2021/03/13 01:44:16;;;;;;;13.82;3.17;;;;;;;6.01;93.64;99641.50;5008494;28;20022;-72
2021/03/13 01:46:41;;;;;;;10.77;3.30;;;;;;;5.96;94.48;99615.44;5004691;28;20029;-73
2021/03/13 01:49:16;;;;;;;11.45;3.55;;;;;;;5.82;95.02;99603.59;5008985;28;20400;-73
2021/03/13 01:51:42;;;;;;;12.93;3.30;;;;;;;5.82;95.31;99579.78;5024916;28;20171;-72
2021/03/13 01:54:07;;;;;;;13.55;3.78;;;;;;;5.85;95.63;99579.44;5010837;28;20241;-72
2021/03/13 01:56:34;;;;;;;10.95;3.28;;;;;;;5.84;95.55;99569.81;5005321;28;20049;-72
2021/03/13 01:59:01;;;;;;;12.50;4.53;;;;;;;5.86;95.93;99567.88;5010315;28;20029;-73
2021/03/13 02:01:27;;;;;;;14.50;4.90;;;;;;;5.86;95.93;99557.28;5024221;28;20034;-73
2021/03/13 02:03:52;;;;;;;14.05;5.15;;;;;;;5.85;95.62;99555.59;5010487;28;20034;-73
2021/03/13 02:06:18;;;;;;;13.20;5.30;;;;;;;5.85;95.13;99546.84;5008768;28;20049;-73
2021/03/13 02:08:52;;;;;;;11.80;4.85;;;;;;;5.63;95.20;99498.72;5009174;28;20030;-73
2021/03/13 02:11:42;;;;;;;16.38;5.53;;;;;;;5.90;95.29;99531.34;5009694;28;20042;-72
2021/03/13 02:14:35;;;;;;;18.05;6.18;;;;;;;5.84;95.73;99516.88;5006148;28;20540;-72
2021/03/13 02:17:20;;;;;;;16.63;6.18;;;;;;;5.83;96.11;99516.06;5006240;28;20053;-72
2021/03/13 02:20:23;;;;;;;16.00;6.40;;;;;;;5.80;96.98;99497.00;5004428;28;20406;-72
2021/03/13 02:22:51;;;;;;;18.45;6.63;;;;;;;5.75;98.17;99489.53;5007937;28;20049;-72
2021/03/13 02:25:35;;;;;;;13.98;5.97;;;;;;;5.77;98.17;99470.84;5003997;28;20024;-72
2021/03/13 02:28:03;;;;;;;15.73;5.78;;;;;;;5.74;97.46;99447.31;5009209;28;20499;-72
2021/03/13 02:30:29;;;;;;;14.63;5.32;;;;;;;5.72;97.65;99452.78;5008844;28;20041;-72
2021/03/13 02:33:04;;;;;;;16.95;5.88;;;;;;;5.68;98.69;99451.44;5007417;28;20026;-72
2021/03/13 02:35:42;;;;;;;12.55;5.60;;;;;;;5.66;99.44;99437.50;5008748;28;20337;-72
2021/03/13 02:38:12;;;;;;;15.30;5.85;;;;;;;5.66;98.72;99424.28;5009516;28;20030;-72
2021/03/13 02:40:40;;;;;;;14.88;6.07;;;;;;;5.59;98.81;99416.13;5008966;28;20104;-72
2021/03/13 02:43:11;;;;;;;16.63;7.22;;;;;;;5.64;99.40;99397.13;5009859;28;20036;-72
2021/03/13 02:45:39;;;;;;;20.10;7.30;;;;;;;5.36;99.00;99339.94;5008484;28;20112;-71
2021/03/13 02:48:08;;;;;;;17.17;8.73;;;;;;;5.61;99.27;99387.69;5009195;28;20090;-72
2021/03/13 02:50:35;;;;;;;15.15;8.40;;;;;;;5.62;99.57;99370.03;5008810;28;20124;-71
2021/03/13 02:53:02;;;;;;;18.30;8.15;;;;;;;5.58;99.72;99355.44;5009820;28;20052;-71
2021/03/13 02:55:29;;;;;;;15.65;8.80;;;;;;;5.59;99.40;99349.16;5007162;28;20112;-71
2021/03/13 02:57:58;;;;;;;17.50;9.50;;;;;;;5.56;100.00;99337.09;5007964;28;20034;-71
2021/03/13 03:00:30;;;;;;;16.08;9.18;;;;;;;5.59;99.97;99323.50;5009021;28;20064;-71
2021/03/13 03:02:57;;;;;;;15.40;9.35;;;;;;;5.61;99.32;99313.59;5007106;28;20573;-71
2021/03/13 03:05:25;;;;;;;18.42;9.95;;;;;;;5.59;100.00;99301.53;5008446;28;20080;-71
2021/03/13 03:07:54;;;;;;;17.83;9.30;;;;;;;5.56;100.00;99284.16;5008371;28;20635;-71
2021/03/13 03:10:25;;;;;;;18.20;8.40;;;;;;;5.56;99.80;99278.88;4995645;28;20106;-71
2021/03/13 03:12:51;;;;;;;16.40;8.70;;;;;;;5.61;99.95;99271.25;5007298;28;20527;-71
2021/03/13 03:15:22;;;;;;;23.17;9.07;;;;;;;5.64;100.00;99248.94;5007810;28;20050;-71
2021/03/13 03:17:49;;;;;;;20.38;8.30;;;;;;;5.53;100.00;99218.31;5005407;28;20185;-71
2021/03/13 03:20:15;;;;;;;14.18;7.95;;;;;;;5.62;100.00;99246.44;5010742;28;20037;-71
2021/03/13 03:22:40;;;;;;;17.73;8.25;;;;;;;5.65;100.00;99226.78;5008393;28;20384;-71
2021/03/13 03:25:08;;;;;;;17.27;8.05;;;;;;;5.66;100.00;99220.50;5007416;28;20580;-71
2021/03/13 03:27:33;;;;;;;18.40;9.07;;;;;;;5.64;100.00;99207.44;5003679;28;20499;-71
2021/03/13 03:29:59;;;;;;;14.98;8.25;;;;;;;5.64;100.00;99203.94;5005185;28;20475;-71
2021/03/13 03:32:25;;;;;;;20.10;7.88;;;;;;;5.65;100.00;99193.22;5005235;28;20034;-71
2021/03/13 03:34:51;;;;;;;12.82;7.68;;;;;;;5.57;100.00;99165.88;5008910;28;20030;-71
2021/03/13 03:37:16;;;;;;;13.10;7.30;;;;;;;5.67;100.00;99166.56;5007856;28;20385;-71
2021/03/13 03:39:42;;;;;;;17.45;7.80;;;;;;;5.55;100.00;99128.19;5008744;28;20163;-71
2021/03/13 03:42:09;;;;;;;14.80;7.18;;;;;;;5.71;100.00;99162.63;5006023;28;20092;-71
2021/03/13 03:44:41;;;;;;;15.82;7.53;;;;;;;5.72;100.00;99152.84;5001751;28;20040;-71
2021/03/13 03:47:08;;;;;;;19.00;7.30;;;;;;;5.65;100.00;99137.63;5003483;28;20032;-71
2021/03/13 03:49:34;;;;;;;17.88;7.05;;;;;;;5.74;100.00;99141.13;5005642;28;20579;-71
2021/03/13 03:52:01;;;;;;;19.88;6.68;;;;;;;5.72;100.00;99111.34;5007426;28;20068;-71
2021/03/13 03:54:28;;;;;;;14.90;6.40;;;;;;;5.79;100.00;99114.97;5008522;28;20037;-71
2021/03/13 03:56:54;;;;;;;16.67;7.55;;;;;;;5.34;100.00;99037.69;5003603;28;20069;-71
2021/03/13 03:59:21;;;;;;;16.52;6.50;;;;;;;5.83;100.00;99099.59;5008546;28;20100;-71
2021/03/13 04:01:50;;;;;;;11.45;5.75;;;;;;;5.85;100.00;99088.84;5006182;28;20021;-70
2021/03/13 04:04:23;;;;;;;16.85;5.88;;;;;;;5.87;100.00;99089.50;5008973;28;20437;-70
2021/03/13 04:06:50;;;;;;;12.20;5.38;;;;;;;5.88;100.00;99091.16;5007208;28;20034;-71
2021/03/13 04:09:20;;;;;;;17.88;5.47;;;;;;;5.48;100.00;99007.13;4983449;28;20551;-72
2021/03/13 04:11:47;;;;;;;16.90;5.47;;;;;;;5.82;100.00;99053.75;5006952;28;20144;-70
2021/03/13 04:14:13;;;;;;;13.82;5.72;;;;;;;5.91;100.00;99048.44;5007663;28;20056;-71
2021/03/13 04:16:39;;;;;;;15.23;4.55;;;;;;;5.93;100.00;99039.38;5006126;28;20038;-71
2021/03/13 04:19:05;;;;;;;13.25;4.55;;;;;;;5.95;100.00;99040.03;5008750;28;20061;-71
2021/03/13 04:21:31;;;;;;;11.18;4.53;;;;;;;5.96;100.00;99019.66;5007177;28;20092;-71
2021/03/13 04:23:58;;;;;;;14.70;4.32;;;;;;;5.97;100.00;99030.06;5005823;28;20084;-71
2021/03/13 04:26:24;;;;;;;9.32;4.55;;;;;;;6.03;100.00;99023.34;5005496;28;20476;-71
2021/03/13 04:28:50;;;;;;;12.27;3.92;;;;;;;6.06;100.00;99016.88;4973898;28;20044;-68
2021/03/13 04:31:18;;;;;;;8.85;3.38;;;;;;;5.86;100.00;98961.59;5005924;28;20108;-68
2021/03/13 04:33:45;;;;;;;14.32;3.33;;;;;;;5.89;100.00;98952.50;5008447;28;20164;-71
2021/03/13 04:36:11;;;;;;;10.15;3.40;;;;;;;5.89;100.00;98941.91;5006392;28;20481;-70
2021/03/13 04:38:38;;;;;;;12.07;3.20;;;;;;;6.18;100.00;98977.59;5007692;28;20069;-71
2021/03/13 04:41:06;;;;;;;12.25;3.60;;;;;;;6.21;100.00;98980.75;5004358;28;20044;-71
2021/03/13 04:43:31;;;;;;;17.30;3.78;;;;;;;6.23;100.00;98973.47;5005305;28;20026;-71
2021/03/13 04:45:59;;;;;;;13.02;2.90;;;;;;;6.07;100.00;98931.94;4997549;28;20105;-68
2021/03/13 04:48:31;;;;;;;9.48;2.88;;;;;;;6.14;100.00;98924.13;4999814;28;20381;-71
2021/03/13 04:51:03;;;;;;;13.27;3.70;;;;;;;6.30;100.00;98943.63;5003012;28;20038;-70
2021/03/13 04:53:29;;;;;;;12.15;3.22;;;;;;;6.26;100.00;98948.44;5007073;28;20116;-68
2021/03/13 04:55:55;;;;;;;15.52;3.65;;;;;;;6.26;100.00;98917.47;5005611;28;20111;-68
2021/03/13 04:58:21;;;;;;;15.05;3.17;;;;;;;6.25;100.00;98930.91;5005800;28;20046;-68
2021/03/13 05:00:46;;;;;;;15.90;3.42;;;;;;;6.23;100.00;98909.03;5005789;28;20033;-68
2021/03/13 05:03:13;;;;;;;10.30;2.70;;;;;;;6.24;100.00;98911.50;5005017;28;20038;-71
2021/03/13 05:05:39;;;;;;;15.38;3.90;;;;;;;6.25;100.00;98899.91;4999009;28;20515;-71
2021/03/13 05:08:04;;;;;;;11.40;3.67;;;;;;;6.04;100.00;98854.69;5005197;28;20124;-71
2021/03/13 05:10:30;;;;;;;10.38;3.15;;;;;;;6.31;100.00;98902.88;4991260;28;20036;-71
2021/03/13 05:12:55;;;;;;;14.25;3.38;;;;;;;6.31;100.00;98898.41;5009420;28;20030;-71
2021/03/13 05:15:23;;;;;;;9.68;2.88;;;;;;;6.29;100.00;98884.53;5007889;28;20095;-71
2021/03/13 05:17:48;;;;;;;14.85;2.72;;;;;;;6.28;100.00;98888.97;5010264;28;20041;-72
2021/03/13 05:20:14;;;;;;;11.02;3.03;;;;;;;6.33;100.00;98872.56;5010679;28;20030;-71
2021/03/13 05:22:39;;;;;;;11.05;2.63;;;;;;;6.36;100.00;98848.38;5008301;28;20571;-71
2021/03/13 05:25:06;;;;;;;11.50;2.83;;;;;;;6.39;100.00;98863.09;5002943;28;20034;-71
2021/03/13 05:27:32;;;;;;;8.88;2.35;;;;;;;6.21;99.72;98856.25;5010291;28;20520;-71
2021/03/13 05:29:58;;;;;;;9.18;2.55;;;;;;;6.40;99.82;98913.28;5009242;28;20032;-70
2021/03/13 05:32:26;;;;;;;12.70;2.60;;;;;;;6.38;99.80;98867.56;5008715;28;20113;-71
2021/03/13 05:34:52;;;;;;;10.55;2.22;;;;;;;6.32;98.95;98888.66;5010529;28;20030;-71
2021/03/13 05:37:18;;;;;;;12.35;2.70;;;;;;;6.30;97.24;98917.97;5009267;28;20042;-71
2021/03/13 05:39:43;;;;;;;10.65;2.03;;;;;;;6.22;97.38;98912.69;5008319;28;20026;-71
2021/03/13 05:42:10;;;;;;;15.85;2.60;;;;;;;6.01;96.82;98884.13;5009792;28;20029;-71
2021/03/13 05:44:37;;;;;;;11.88;2.92;;;;;;;6.09;95.43;98915.91;5005307;28;20206;-70
2021/03/13 05:47:03;;;;;;;11.38;2.03;;;;;;;6.10;94.69;98921.00;5008072;28;20150;-71
2021/03/13 05:49:31;;;;;;;16.95;2.47;;;;;;;6.06;94.97;98916.25;5008797;28;20108;-71
2021/03/13 05:51:58;;;;;;;16.27;2.70;;;;;;;6.04;94.36;98926.16;5009002;28;20152;-71
2021/03/13 05:54:24;;;;;;;16.05;2.28;;;;;;;6.03;94.18;98937.75;5010589;28;20488;-71
2021/03/13 05:56:50;;;;;;;13.20;2.28;;;;;;;5.98;93.92;98946.19;5008100;28;20036;-72
2021/03/13 05:59:16;;;;;;;14.80;2.70;;;;;;;5.97;93.85;98953.28;5008691;28;20026;-72
2021/03/13 06:01:43;;;;;;;13.73;2.83;;;;;;;5.95;91.41;98957.94;5007425;28;20049;-72
2021/03/13 06:04:08;;;;;;;18.10;2.65;;;;;;;5.95;90.76;98950.00;5010563;28;20038;-72
2021/03/13 06:06:37;;;;;;;24.40;3.42;;;;;;;5.58;91.28;98897.66;4997127;28;20072;-73
2021/03/13 06:09:04;;;;;;;26.65;4.30;;;;;;;5.96;90.30;98949.00;5008209;28;20017;-72
2021/03/13 06:11:29;;;;;;;24.50;3.53;;;;;;;5.98;90.21;98954.13;5006409;28;20046;-73
2021/03/13 06:13:55;;;;;;;20.70;3.30;;;;;;;5.74;90.05;98929.38;5004919;28;20046;-74
2021/03/13 06:16:22;;;;;;;20.35;3.60;;;;;;;5.95;90.10;98965.91;5006668;28;20501;-73
2021/03/13 06:18:47;;;;;;;21.90;3.30;;;;;;;5.93;89.41;98977.63;5006077;28;20085;-73
2021/03/13 06:21:34;;;;;;;26.63;3.85;;;;;;;5.66;88.96;98938.16;5009138;28;20569;-69
2021/03/13 06:24:02;;;;;;;29.35;4.57;;;;;;;5.92;88.83;98962.72;4992525;28;20060;-73
2021/03/13 06:26:48;;;;;;;21.23;3.60;;;;;;;5.89;87.33;98969.19;5008156;28;20029;-73
2021/03/13 06:29:14;;;;;;;22.30;3.67;;;;;;;5.88;88.40;98979.97;5003312;28;20032;-73
2021/03/13 06:31:40;;;;;;;26.48;4.53;;;;;;;5.35;88.16;98901.00;5009899;28;20042;-73
2021/03/13 06:34:06;;;;;;;24.42;3.65;;;;;;;5.85;87.00;98989.06;5004393;28;20034;-70
2021/03/13 06:36:31;;;;;;;19.08;3.17;;;;;;;5.86;87.20;98980.13;5007829;28;20500;-69
2021/03/13 06:38:57;;;;;;;25.13;3.15;;;;;;;5.89;87.63;98981.63;5008092;28;20053;-73
2021/03/13 06:41:23;;;;;;;22.13;3.90;;;;;;;5.90;87.37;98986.75;5008309;28;20080;-73
2021/03/13 06:43:56;;;;;;;24.35;3.78;;;;;;;5.93;87.42;98988.22;5004505;28;20160;-75
2021/03/13 06:46:29;;;;;;;25.33;3.45;;;;;;;5.93;86.45;98985.56;4995666;28;20443;-70
2021/03/13 06:48:59;;;;;;;21.70;3.85;;;;;;;5.94;87.71;98987.22;5006142;28;20030;-70
2021/03/13 06:51:33;;;;;;;20.73;3.63;;;;;;;5.64;86.59;98936.66;5006606;28;20113;-70
2021/03/13 06:54:16;;;;;;;24.13;3.55;;;;;;;6.03;87.11;98990.72;5004549;28;20084;-74
2021/03/13 06:56:45;;;;;;;25.60;3.15;;;;;;;5.66;86.93;98953.19;5002403;28;20029;-74
2021/03/13 06:59:21;;;;;;;27.60;4.30;;;;;;;6.07;84.99;98997.34;4987914;28;20095;-76
2021/03/13 07:01:57;;;;;;;32.40;5.22;;;;;;;6.07;84.71;98989.41;5016662;28;20026;-76
2021/03/13 07:04:30;;;;;;;26.45;4.15;;;;;;;6.12;84.91;98990.53;5004607;28;20037;-76
2021/03/13 07:06:56;;;;;;;24.48;4.53;;;;;;;6.14;83.85;98987.69;4996932;28;20046;-75
2021/03/13 07:09:46;;;;;;;28.27;3.95;;;;;;;6.20;83.82;98996.78;4999181;28;20022;-75
2021/03/13 07:12:26;;;;;;;27.02;4.03;;;;;;;6.20;80.74;98965.00;4995090;28;20061;-74
2021/03/13 07:14:52;;;;;;;22.60;3.78;;;;;;;6.26;81.33;98981.03;5013068;28;20050;-74
2021/03/13 07:17:19;;;;;;;36.17;4.38;;;;;;;6.11;81.07;98956.25;4981343;28;20442;-68
2021/03/13 07:19:44;;;;;;;26.27;4.20;;;;;;;6.25;80.56;98983.88;5001728;28;20046;-74
2021/03/13 07:22:13;;;;;;;24.98;4.40;;;;;;;6.18;80.43;98951.94;4999407;28;20048;-73
2021/03/13 07:24:48;;;;;;;23.77;5.00;;;;;;;6.50;80.03;98989.06;5005642;28;20036;-73
2021/03/13 07:27:20;;;;;;;30.42;5.03;;;;;;;6.73;78.76;98997.91;5001149;28;20038;-74
2021/03/13 07:29:48;;;;;;;22.67;4.18;;;;;;;7.17;78.25;98988.53;5010467;28;20022;-74
2021/03/13 07:32:18;;;;;;;23.85;4.13;;;;;;;7.45;77.08;99000.44;5002655;28;20036;-68
2021/03/13 07:34:45;;;;;;;26.80;4.47;;;;;;;7.51;73.46;98979.31;4992756;28;20068;-73
2021/03/13 07:37:17;;;;;;;23.27;4.03;;;;;;;7.75;73.16;98971.31;5010924;28;20045;-74
2021/03/13 07:39:45;;;;;;;25.38;4.35;;;;;;;8.23;71.17;98984.28;5003157;28;20026;-74
2021/03/13 07:42:18;;;;;;;27.75;4.63;;;;;;;8.02;71.33;98951.28;5015059;28;20121;-74
2021/03/13 07:44:45;;;;;;;24.67;4.75;;;;;;;7.95;72.46;98992.88;4999613;28;20037;-74
2021/03/13 07:47:19;;;;;;;26.60;4.78;;;;;;;7.81;73.32;99013.06;5002240;28;20262;-75
2021/03/13 07:49:45;;;;;;;26.67;4.95;;;;;;;7.77;74.96;98993.22;5005952;28;20054;-74
2021/03/13 07:52:12;;;;;;;35.80;5.10;;;;;;;7.61;75.60;98999.47;5004060;28;20061;-74
2021/03/13 07:54:47;;;;;;;38.97;6.13;;;;;;;7.67;75.51;99020.00;5005230;28;20449;-74
2021/03/13 07:57:14;;;;;;;34.13;5.78;;;;;;;7.72;75.19;99008.84;5002360;28;20030;-74
2021/03/13 07:59:51;;;;;;;32.95;5.75;;;;;;;7.77;74.81;99012.59;5017169;28;20197;-68
2021/03/13 08:02:29;;;;;;;36.95;5.97;;;;;;;7.78;75.15;99026.72;5004290;28;20030;-74
2021/03/13 08:05:11;;;;;;;35.03;5.82;;;;;;;7.85;75.66;99010.91;4999788;28;20672;-74
2021/03/13 08:07:55;;;;;;;30.80;5.43;;;;;;;7.93;75.22;99048.84;5004487;28;20030;-74
2021/03/13 08:10:47;;;;;;;32.95;5.28;;;;;;;7.80;76.12;99014.91;5004867;28;20049;-74
2021/03/13 08:13:35;;;;;;;36.55;5.68;;;;;;;7.86;76.06;99026.63;5004286;28;20413;-74
2021/03/13 08:16:03;;;;;;;33.22;6.25;;;;;;;8.15;75.12;99030.34;4999087;28;20041;-73
2021/03/13 08:18:51;;;;;;;33.33;5.45;;;;;;;8.15;73.80;99035.66;5004704;28;20041;-74
2021/03/13 08:21:19;;;;;;;29.20;6.13;;;;;;;7.96;74.28;99037.81;5014001;28;20041;-74
2021/03/13 08:23:49;;;;;;;;;;;;;;;8.10;72.96;99038.88;5005326;28;20103;-74
2021/03/13 08:26:15;;;;;;;23.80;4.18;;;;;;;8.28;73.50;99038.53;5000410;28;19922;-74
2021/03/13 08:28:50;;;;;;;30.38;4.97;;;;;;;8.45;73.12;99045.47;5001300;28;20053;-74
2021/03/13 08:31:21;;;;;;;25.67;4.47;;;;;;;8.50;70.67;99048.47;5002299;28;20583;-70
2021/03/13 08:34:08;;;;;;;19.77;4.63;;;;;;;8.32;70.02;99041.63;5005332;28;20030;-74
2021/03/13 08:36:39;;;;;;;23.02;4.63;;;;;;;8.11;71.17;99053.81;4986156;28;20108;-74
2021/03/13 08:39:07;;;;;;;25.10;4.53;;;;;;;7.93;70.21;99042.69;5003935;28;20037;-73
2021/03/13 08:44:13;;;;;;;24.42;4.57;;;;;;;7.72;72.64;99049.50;4998820;28;20504;-74
2021/03/13 08:46:42;;;;;;;25.98;4.97;;;;;;;7.70;72.56;99048.88;5006107;28;20038;-74
2021/03/13 08:49:08;;;;;;;27.63;4.38;;;;;;;7.68;72.30;99040.25;4990261;28;20033;-74
2021/03/13 08:51:34;;;;;;;20.55;4.43;;;;;;;7.65;72.85;99044.09;5007478;28;20084;-75
2021/03/13 08:54:00;;;;;;;24.02;3.88;;;;;;;7.45;73.63;99017.19;5010244;28;20493;-75
2021/03/13 08:56:45;;;;;;;22.85;4.78;;;;;;;7.78;74.42;99042.66;5017878;28;20104;-74
2021/03/13 08:59:19;;;;;;;31.30;4.88;;;;;;;7.84;73.31;99041.13;5004990;28;20471;-75
2021/03/13 09:02:01;;;;;;;35.90;5.43;;;;;;;7.53;73.21;99029.59;5004677;28;20487;-68
2021/03/13 09:04:28;;;;;;;39.80;6.38;;;;;;;7.68;75.20;99052.69;5007122;28;20029;-74
2021/03/13 09:06:53;;;;;;;37.05;5.88;;;;;;;7.69;74.51;99033.09;5003562;28;20292;-74
2021/03/13 09:09:19;;;;;;;30.55;5.57;;;;;;;7.74;73.83;99033.38;4990677;28;20030;-75
2021/03/13 09:11:53;;;;;;;38.45;6.30;;;;;;;7.86;73.52;99061.16;5002589;28;20124;-75
2021/03/13 09:14:20;;;;;;;27.70;5.05;;;;;;;7.76;73.81;99055.28;5004788;28;20112;-75
2021/03/13 09:16:45;;;;;;;32.00;6.07;;;;;;;8.26;71.53;99064.44;5002542;28;20484;-75
2021/03/13 09:19:14;;;;;;;37.08;6.07;;;;;;;8.94;68.58;99050.25;5006986;28;20108;-75
2021/03/13 09:21:50;;;;;;;39.78;7.65;;;;;;;9.50;67.21;99064.75;5005498;28;20038;-78
2021/03/13 09:24:25;;;;;;;28.17;5.20;;;;;;;9.49;66.84;99066.59;5006623;28;20022;-75
2021/03/13 09:26:53;;;;;;;31.20;5.88;;;;;;;8.91;67.22;98985.94;5000221;28;20105;-75
2021/03/13 09:29:29;;;;;;;;;;;;;;;9.24;66.44;99041.34;5006873;28;20033;-75
2021/03/13 09:32:03;;;;;;;22.95;4.95;;;;;;;9.05;65.74;99051.59;5015641;28;20380;-75
2021/03/13 09:34:32;;;;;;;38.78;5.45;;;;;;;8.72;66.63;99052.03;5008350;28;20034;-75
2021/03/13 09:36:57;;;;;;;;;;;;;;;8.45;64.79;99080.03;5002053;28;20396;-75
2021/03/13 09:39:26;;;;;;;31.27;4.68;;;;;;;8.32;66.37;99062.88;5002749;28;20067;-74
2021/03/13 09:42:02;;;;;;;28.90;5.35;;;;;;;8.36;64.40;99077.47;5005762;28;20460;-74
2021/03/13 09:44:36;;;;;;;27.83;4.97;;;;;;;8.24;66.49;99047.84;5006782;28;20021;-75
2021/03/13 09:47:19;;;;;;;32.70;5.28;;;;;;;7.88;67.73;99014.00;5000581;28;20041;-74
2021/03/13 09:49:47;;;;;;;29.52;4.78;;;;;;;8.17;68.80;99062.03;5006471;28;20061;-74
2021/03/13 09:52:13;;;;;;;30.30;4.70;;;;;;;8.05;67.75;99030.59;5006173;28;20056;-75
2021/03/13 09:54:40;;;;;;;23.85;4.93;;;;;;;8.12;68.37;99051.97;4988072;28;20041;-75
2021/03/13 09:57:11;;;;;;;23.83;4.53;;;;;;;8.41;67.20;99064.44;5003313;28;20026;-75
2021/03/13 09:59:36;;;;;;;28.27;4.93;;;;;;;8.26;65.91;99053.00;5007402;28;20041;-75
2021/03/13 10:02:02;;;;;;;20.75;4.30;;;;;;;8.39;64.82;99089.56;5020019;28;20112;-75
2021/03/13 10:04:30;;;;;;;20.00;3.92;;;;;;;8.19;65.73;99052.91;5006893;28;20025;-68
2021/03/13 10:06:55;;;;;;;20.08;4.05;;;;;;;8.62;65.25;99107.31;5002535;28;20105;-68
2021/03/13 10:09:21;;;;;;;19.42;3.90;;;;;;;8.68;65.23;99062.22;5007291;28;20121;-68
2021/03/13 10:11:46;;;;;;;21.30;4.28;;;;;;;8.72;64.97;99086.59;5008053;28;20052;-68
2021/03/13 10:14:19;;;;;;;22.45;4.50;;;;;;;8.22;64.67;99011.84;5005995;28;20133;-68
2021/03/13 10:16:46;;;;;;;25.40;4.97;;;;;;;8.78;64.12;99099.13;5002680;28;20045;-68
2021/03/13 10:19:37;;;;;;;26.77;4.55;;;;;;;8.86;63.71;99083.09;5005263;28;20050;-75
2021/03/13 10:22:06;;;;;;;28.38;4.65;;;;;;;8.62;63.59;99064.78;5018340;28;20045;-68
2021/03/13 10:24:41;;;;;;;26.23;4.90;;;;;;;8.77;64.72;99089.50;5005623;28;20068;-68
2021/03/13 10:27:07;;;;;;;22.13;3.80;;;;;;;8.63;65.11;99087.69;5003283;28;20396;-68
2021/03/13 10:29:32;;;;;;;27.50;4.20;;;;;;;8.59;66.16;99097.84;5003211;28;20033;-74
2021/03/13 10:32:02;;;;;;;20.85;4.13;;;;;;;8.71;64.58;99079.63;5004878;28;20049;-68
2021/03/13 10:34:36;;;;;;;23.35;4.35;;;;;;;8.82;65.38;99071.16;5006609;28;20042;-69
2021/03/13 10:37:02;;;;;;;21.52;4.32;;;;;;;8.86;63.97;99083.09;4998264;28;20030;-68
2021/03/13 10:39:28;;;;;;;25.05;4.63;;;;;;;8.89;65.15;99081.91;5005289;28;20489;-75
2021/03/13 10:42:01;;;;;;;20.38;4.05;;;;;;;8.84;64.12;99103.75;5006700;28;20038;-76
2021/03/13 10:44:26;;;;;;;19.35;4.85;;;;;;;8.84;64.17;99081.63;5006378;28;20041;-74
2021/03/13 10:46:52;;;;;;;19.83;4.20;;;;;;;8.76;64.04;99066.56;5003210;28;20034;-75
2021/03/13 10:49:27;;;;;;;25.38;3.97;;;;;;;8.79;63.55;99079.50;5004190;28;20109;-74
2021/03/13 10:51:54;;;;;;;17.10;3.83;;;;;;;8.75;63.66;99096.88;5004167;28;20032;-75
2021/03/13 10:54:31;;;;;;;17.40;3.55;;;;;;;8.76;63.75;99089.69;5002398;28;20499;-75
2021/03/13 10:57:05;;;;;;;15.13;3.28;;;;;;;8.60;64.59;99101.38;5001408;28;20053;-74
2021/03/13 10:59:32;;;;;;;18.45;3.85;;;;;;;8.38;64.30;99056.84;5001858;28;20136;-74
2021/03/13 11:01:57;;;;;;;20.25;4.40;;;;;;;8.42;64.17;99067.94;4988335;28;20056;-75
2021/03/13 11:04:23;;;;;;;18.30;4.03;;;;;;;8.72;64.26;99089.25;5005645;28;20033;-75
2021/03/13 11:06:53;;;;;;;18.17;3.97;;;;;;;8.60;64.63;99041.03;4998115;28;20038;-75
2021/03/13 11:09:18;;;;;;;25.58;4.05;;;;;;;8.83;63.65;99083.47;5003220;28;20470;-75
2021/03/13 11:11:44;;;;;;;17.67;3.15;;;;;;;8.84;63.66;99079.78;5002215;28;20064;-75
2021/03/13 11:14:09;;;;;;;15.18;3.50;;;;;;;8.84;64.51;99081.63;5000419;28;20058;-74
2021/03/13 11:16:37;;;;;;;14.80;3.25;;;;;;;8.70;64.17;99083.28;5001447;28;20042;-74
2021/03/13 11:19:04;;;;;;;29.25;4.68;;;;;;;8.60;67.00;99096.84;5006226;28;20084;-74
2021/03/13 11:21:30;;;;;;;22.25;4.25;;;;;;;8.45;67.48;99077.38;5005187;28;20515;-68
2021/03/13 11:23:55;;;;;;;23.05;4.03;;;;;;;8.39;68.61;99081.59;5006793;28;20030;-68
2021/03/13 11:26:22;;;;;;;24.08;4.57;;;;;;;8.50;67.06;99086.47;5000886;28;20034;-74
2021/03/13 11:28:48;;;;;;;19.27;4.13;;;;;;;8.69;66.73;99092.28;4999627;28;20392;-74
2021/03/13 11:31:14;;;;;;;21.90;4.40;;;;;;;8.62;65.90;99076.22;5021121;28;20030;-74
2021/03/13 11:33:40;;;;;;;22.05;3.63;;;;;;;8.80;65.65;99085.69;5004179;28;20085;-74
2021/03/13 11:36:07;;;;;;;23.38;3.95;;;;;;;8.96;66.50;99084.63;5003008;28;20053;-75
2021/03/13 11:38:34;;;;;;;19.75;4.32;;;;;;;9.14;65.96;99111.69;5005128;28;20096;-74
2021/03/13 11:41:02;;;;;;;21.00;3.60;;;;;;;9.07;65.52;99068.19;5001408;28;20029;-75
2021/03/13 11:43:28;;;;;;;22.38;3.13;;;;;;;9.27;65.55;99092.38;5002601;28;20053;-75
2021/03/13 11:45:53;;;;;;;18.70;3.28;;;;;;;9.36;63.07;99097.59;4999292;28;20144;-75